Terminal Aerodrome Forecast
Issued by NWS

Home | Current Version | Previous Version | Text Only | Print | Product List | Glossary On
Versions: 1 2 3 4 5 6 7 8 9 10 11 12 13 14 15 16 17 18 19 20 21
000
FTUS43 KBIS 220200 AAB
TAFMOT
TAF AMD
KMOT 220252Z 2203/2224 01011KT P6SM SCT020
      TEMPO 2203/2206 BKN020
     FM220600 35007KT P6SM VCFG BKN011
     FM221400 03006KT P6SM SCT050=

USA.gov is the U.S. government's official web portal to all federal, state and local government web resources and services.